createdAt,value
2022-10-26T00:00:27.381Z,11.60
2022-10-26T00:03:29.415Z,11.60
2022-10-26T00:06:36.474Z,11.60
2022-10-26T00:09:38.519Z,11.60
2022-10-26T00:12:40.667Z,11.50
2022-10-26T00:15:42.906Z,11.50
2022-10-26T00:18:45.087Z,11.50
2022-10-26T00:21:47.179Z,11.50
2022-10-26T00:24:49.340Z,11.50
2022-10-26T00:27:51.612Z,11.50
2022-10-26T00:30:54.027Z,11.50
2022-10-26T00:33:56.423Z,11.50
2022-10-26T00:36:58.579Z,11.60
2022-10-26T00:40:00.679Z,11.50
2022-10-26T00:43:02.799Z,11.50
2022-10-26T00:46:07.606Z,11.50
2022-10-26T00:49:14.181Z,11.50
2022-10-26T00:52:16.318Z,11.50
2022-10-26T00:55:21.471Z,11.50
2022-10-26T00:58:23.617Z,11.50
2022-10-26T01:01:25.813Z,11.50
2022-10-26T01:04:27.874Z,11.50
2022-10-26T01:07:29.962Z,11.40
2022-10-26T01:10:32.063Z,11.40
2022-10-26T01:13:35.906Z,11.40
2022-10-26T01:16:57.500Z,11.40
2022-10-26T01:20:21.069Z,11.40
2022-10-26T01:23:28.700Z,11.40
2022-10-26T01:27:01.710Z,11.30
2022-10-26T01:30:31.450Z,11.30
2022-10-26T01:33:47.002Z,11.40
2022-10-26T01:36:56.328Z,11.30
2022-10-26T01:40:06.417Z,11.30
2022-10-26T01:43:09.629Z,11.30
2022-10-26T01:46:12.038Z,11.30
2022-10-26T01:49:15.498Z,11.30
2022-10-26T01:52:19.553Z,11.30
2022-10-26T01:55:52.394Z,11.20
2022-10-26T01:59:16.222Z,11.30
2022-10-26T02:02:52.827Z,11.30
2022-10-26T02:06:17.292Z,11.30
2022-10-26T02:09:45.258Z,11.30
2022-10-26T02:13:32.671Z,11.30
2022-10-26T02:16:58.152Z,11.30
2022-10-26T02:20:05.840Z,11.30
2022-10-26T02:23:07.890Z,11.30
2022-10-26T02:26:10.694Z,11.30
2022-10-26T02:29:18.011Z,11.30
2022-10-26T02:32:20.346Z,11.30
2022-10-26T02:35:31.001Z,11.30
2022-10-26T02:38:33.036Z,11.30
2022-10-26T02:41:35.085Z,11.30
2022-10-26T02:44:50.338Z,11.30
2022-10-26T02:47:52.652Z,11.30
2022-10-26T02:51:10.345Z,11.30
2022-10-26T02:54:56.942Z,11.30
2022-10-26T02:58:01.909Z,11.40
2022-10-26T03:01:04.087Z,11.30
2022-10-26T03:04:06.219Z,11.30
2022-10-26T03:07:09.484Z,11.40
2022-10-26T03:10:11.761Z,11.40
2022-10-26T03:13:13.934Z,11.40
2022-10-26T03:16:15.964Z,11.40
2022-10-26T03:19:18.017Z,11.40
2022-10-26T03:22:20.062Z,11.50
2022-10-26T03:25:22.087Z,11.50
2022-10-26T03:28:24.155Z,11.50
2022-10-26T03:31:26.209Z,11.50
2022-10-26T03:34:28.256Z,11.50
2022-10-26T03:37:30.283Z,11.50
2022-10-26T03:40:32.362Z,11.60
2022-10-26T03:43:34.471Z,11.60
2022-10-26T03:46:36.507Z,11.50
2022-10-26T03:49:38.531Z,11.60
2022-10-26T03:52:40.869Z,11.60
2022-10-26T03:55:45.823Z,11.60
2022-10-26T03:58:47.847Z,11.60
2022-10-26T04:01:52.745Z,11.60
2022-10-26T04:04:57.414Z,11.60
2022-10-26T04:08:00.691Z,11.60
2022-10-26T04:11:04.609Z,11.70
2022-10-26T04:14:06.953Z,11.70
2022-10-26T04:17:08.992Z,11.70
2022-10-26T04:20:11.287Z,11.70
2022-10-26T04:23:15.243Z,11.70
2022-10-26T04:26:17.349Z,11.70
2022-10-26T04:29:19.375Z,11.70
2022-10-26T04:32:21.518Z,11.70
2022-10-26T04:35:23.558Z,11.80
2022-10-26T04:38:25.622Z,11.80
2022-10-26T04:41:27.669Z,11.80
2022-10-26T04:44:29.705Z,11.80
2022-10-26T04:47:32.271Z,11.80
2022-10-26T04:50:34.723Z,11.80
2022-10-26T04:53:38.366Z,11.80
2022-10-26T04:56:40.574Z,11.80
2022-10-26T04:59:42.680Z,11.80
2022-10-26T05:02:44.729Z,11.80
2022-10-26T05:05:47.867Z,11.80
2022-10-26T05:08:49.973Z,11.80
2022-10-26T05:11:51.997Z,11.90
2022-10-26T05:14:59.001Z,11.90
2022-10-26T05:18:03.529Z,11.80
2022-10-26T05:21:05.758Z,11.80
2022-10-26T05:24:10.184Z,11.80
2022-10-26T05:27:14.479Z,11.80
2022-10-26T05:30:16.704Z,11.90
2022-10-26T05:33:18.805Z,11.90
2022-10-26T05:36:20.999Z,11.90
2022-10-26T05:39:23.070Z,11.90
2022-10-26T05:42:25.536Z,11.90
2022-10-26T05:45:27.955Z,11.90
2022-10-26T05:48:30.030Z,11.90
2022-10-26T05:51:34.559Z,11.90
2022-10-26T05:54:36.727Z,12.00
2022-10-26T05:57:39.348Z,12.00
2022-10-26T06:01:08.001Z,12.00
2022-10-26T06:04:22.642Z,12.00
2022-10-26T06:07:25.178Z,12.00
2022-10-26T06:10:28.114Z,12.00
2022-10-26T06:13:30.895Z,12.00
2022-10-26T06:16:42.860Z,12.10
2022-10-26T06:19:57.357Z,12.10
2022-10-26T06:23:19.241Z,12.10
2022-10-26T06:26:52.551Z,12.10
2022-10-26T06:30:14.833Z,12.10
2022-10-26T06:33:28.520Z,12.10
2022-10-26T06:36:31.820Z,12.10
2022-10-26T06:39:37.497Z,12.20
2022-10-26T06:42:39.853Z,12.20
2022-10-26T06:45:41.928Z,12.20
2022-10-26T06:49:22.254Z,12.20
2022-10-26T06:52:38.776Z,12.30
2022-10-26T06:55:45.210Z,12.30
2022-10-26T06:58:47.353Z,12.30
2022-10-26T07:01:49.458Z,12.40
2022-10-26T07:04:51.597Z,12.40
2022-10-26T07:07:53.779Z,12.30
2022-10-26T07:10:55.928Z,12.40
2022-10-26T07:13:57.956Z,12.40
2022-10-26T07:17:00.100Z,12.40
2022-10-26T07:20:02.118Z,12.40
2022-10-26T07:23:06.904Z,12.40
2022-10-26T07:26:08.940Z,12.30
2022-10-26T07:29:11.002Z,12.30
2022-10-26T07:32:13.029Z,12.30
2022-10-26T07:35:15.171Z,12.40
2022-10-26T07:38:17.222Z,12.40
2022-10-26T07:41:19.439Z,12.40
2022-10-26T07:44:21.519Z,12.40
2022-10-26T07:47:23.583Z,12.40
2022-10-26T07:50:25.794Z,12.40
2022-10-26T07:53:28.139Z,12.40
2022-10-26T07:56:30.343Z,12.50
2022-10-26T07:59:32.503Z,12.50
2022-10-26T08:02:34.706Z,12.60
2022-10-26T08:05:36.746Z,12.60
2022-10-26T08:08:40.651Z,12.70
2022-10-26T08:11:45.448Z,12.70
2022-10-26T08:14:48.579Z,12.80
2022-10-26T08:17:50.846Z,12.90
2022-10-26T08:20:53.312Z,13.10
2022-10-26T08:23:55.478Z,13.10
2022-10-26T08:26:57.545Z,13.30
2022-10-26T08:29:59.591Z,13.30
2022-10-26T08:33:06.657Z,13.50
2022-10-26T08:36:08.874Z,13.50
2022-10-26T08:39:10.920Z,13.60
2022-10-26T08:42:37.600Z,13.70
2022-10-26T08:45:41.440Z,13.60
2022-10-26T08:48:52.895Z,13.70
2022-10-26T08:51:58.123Z,13.70
2022-10-26T08:55:00.183Z,13.70
2022-10-26T08:58:02.265Z,13.70
2022-10-26T09:01:05.474Z,13.70
2022-10-26T09:04:13.371Z,13.90
2022-10-26T09:07:36.651Z,14.00
2022-10-26T09:10:57.618Z,13.90
2022-10-26T09:14:40.674Z,13.80
2022-10-26T09:18:19.606Z,13.60
2022-10-26T09:21:43.638Z,13.60
2022-10-26T09:24:53.363Z,13.70
2022-10-26T09:28:01.453Z,13.80
2022-10-26T09:31:04.207Z,13.90
2022-10-26T09:34:06.635Z,14.00
2022-10-26T09:37:38.423Z,14.00
2022-10-26T09:41:08.759Z,14.20
2022-10-26T09:44:55.085Z,14.50
2022-10-26T09:48:03.970Z,14.80
2022-10-26T09:51:08.665Z,15.10
2022-10-26T09:54:18.925Z,15.30
2022-10-26T09:57:21.017Z,15.30
2022-10-26T10:00:25.189Z,15.20
2022-10-26T10:03:29.607Z,15.10
2022-10-26T10:06:31.671Z,15.10
2022-10-26T10:09:33.701Z,15.20
2022-10-26T10:12:35.771Z,15.10
2022-10-26T10:15:37.823Z,15.10
2022-10-26T10:18:41.425Z,15.10
2022-10-26T10:21:49.219Z,14.90
2022-10-26T10:24:55.837Z,14.70
2022-10-26T10:27:57.869Z,14.80
2022-10-26T10:31:03.355Z,14.90
2022-10-26T10:34:16.850Z,15.00
2022-10-26T10:37:44.326Z,15.00
2022-10-26T10:40:59.708Z,14.90
2022-10-26T10:44:23.850Z,15.10
2022-10-26T10:47:34.092Z,15.10
2022-10-26T10:50:36.539Z,15.10
2022-10-26T10:53:44.877Z,15.10
2022-10-26T10:57:07.794Z,15.50
2022-10-26T11:00:10.571Z,15.80
2022-10-26T11:03:38.266Z,16.00
2022-10-26T11:06:40.291Z,15.80
2022-10-26T11:09:43.626Z,15.50
2022-10-26T11:12:59.937Z,15.30
2022-10-26T11:16:11.945Z,15.20
2022-10-26T11:19:24.452Z,15.20
2022-10-26T11:22:37.339Z,15.20
2022-10-26T11:25:50.226Z,15.20
2022-10-26T11:29:04.924Z,15.10
2022-10-26T11:32:40.249Z,14.90
2022-10-26T11:35:55.157Z,14.90
2022-10-26T11:39:44.294Z,15.10
2022-10-26T11:43:18.085Z,15.80
2022-10-26T11:46:50.447Z,16.10
2022-10-26T11:50:12.191Z,16.40
2022-10-26T11:53:31.989Z,16.30
2022-10-26T11:56:44.308Z,16.80
2022-10-26T11:59:50.990Z,17.00
2022-10-26T12:03:08.644Z,17.40
2022-10-26T12:06:10.678Z,17.20
2022-10-26T12:09:26.552Z,17.20
2022-10-26T12:13:08.454Z,17.30
2022-10-26T12:17:06.578Z,17.60
2022-10-26T12:20:32.650Z,17.40
2022-10-26T12:24:02.418Z,17.40
2022-10-26T12:27:05.847Z,18.00
2022-10-26T12:30:17.604Z,18.00
2022-10-26T12:33:29.895Z,18.50
2022-10-26T12:36:56.616Z,17.80
2022-10-26T12:40:32.722Z,19.10
2022-10-26T12:43:39.465Z,19.20
2022-10-26T12:46:42.123Z,19.20
2022-10-26T12:50:07.232Z,17.70
2022-10-26T12:53:14.049Z,17.30
2022-10-26T12:56:16.794Z,18.60
2022-10-26T12:59:33.726Z,17.40
2022-10-26T13:03:28.941Z,16.50
2022-10-26T13:06:48.318Z,16.20
2022-10-26T13:10:12.602Z,16.10
2022-10-26T13:13:22.827Z,16.10
2022-10-26T13:16:26.295Z,16.10
2022-10-26T13:19:45.015Z,15.80
2022-10-26T13:22:47.701Z,15.60
2022-10-26T13:26:07.909Z,15.60
2022-10-26T13:29:09.952Z,15.40
2022-10-26T13:32:12.191Z,15.20
2022-10-26T13:35:14.578Z,15.10
2022-10-26T13:38:19.163Z,15.30
2022-10-26T13:41:34.190Z,15.90
2022-10-26T13:44:36.113Z,15.50
2022-10-26T13:48:06.305Z,15.20
2022-10-26T13:51:21.165Z,15.30
2022-10-26T13:54:40.057Z,15.70
2022-10-26T13:58:09.638Z,16.10
2022-10-26T14:01:16.698Z,15.70
2022-10-26T14:04:29.073Z,15.60
2022-10-26T14:08:03.635Z,15.50
2022-10-26T14:11:05.873Z,15.90
2022-10-26T14:14:13.631Z,16.50
2022-10-26T14:17:22.964Z,15.90
2022-10-26T14:20:25.597Z,17.40
2022-10-26T14:23:38.167Z,15.70
2022-10-26T14:26:41.042Z,15.10
2022-10-26T14:29:46.902Z,15.00
2022-10-26T14:32:53.031Z,14.80
2022-10-26T14:35:55.330Z,14.80
2022-10-26T14:39:05.565Z,15.10
2022-10-26T14:42:40.631Z,15.30
2022-10-26T14:45:49.536Z,16.70
2022-10-26T14:48:59.445Z,18.40
2022-10-26T14:52:06.256Z,18.90
2022-10-26T14:55:14.598Z,19.00
2022-10-26T14:58:30.551Z,20.40
2022-10-26T15:01:35.674Z,20.60
2022-10-26T15:04:40.614Z,20.80
2022-10-26T15:07:44.619Z,20.40
2022-10-26T15:10:47.528Z,20.70
2022-10-26T15:13:49.609Z,19.80
2022-10-26T15:16:56.926Z,17.10
2022-10-26T15:20:03.749Z,16.80
2022-10-26T15:23:06.156Z,16.20
2022-10-26T15:26:10.684Z,15.90
2022-10-26T15:29:45.461Z,15.60
2022-10-26T15:32:47.690Z,15.30
2022-10-26T15:35:49.814Z,15.10
2022-10-26T15:38:52.100Z,15.20
2022-10-26T15:41:54.417Z,15.10
2022-10-26T15:44:56.499Z,14.90
2022-10-26T15:47:59.634Z,14.80
2022-10-26T15:51:01.670Z,14.60
2022-10-26T15:54:04.681Z,14.50
2022-10-26T15:57:09.081Z,14.40
2022-10-26T16:00:16.089Z,14.40
2022-10-26T16:03:23.160Z,14.30
2022-10-26T16:06:34.984Z,14.50
2022-10-26T16:09:37.077Z,14.40
2022-10-26T16:12:39.369Z,14.30
2022-10-26T16:15:41.720Z,14.20
2022-10-26T16:18:44.057Z,14.10
2022-10-26T16:21:46.163Z,14.00
2022-10-26T16:24:48.255Z,14.00
2022-10-26T16:27:50.817Z,14.00
2022-10-26T16:30:59.270Z,14.10
2022-10-26T16:34:04.102Z,13.90
2022-10-26T16:37:06.582Z,13.70
2022-10-26T16:40:09.315Z,13.60
2022-10-26T16:43:11.556Z,13.40
2022-10-26T16:46:18.913Z,13.40
2022-10-26T16:49:20.974Z,13.30
2022-10-26T16:52:23.013Z,13.30
2022-10-26T16:55:25.112Z,13.30
2022-10-26T16:58:27.158Z,13.30
2022-10-26T17:01:29.452Z,13.30
2022-10-26T17:04:31.594Z,13.30
2022-10-26T17:07:33.694Z,13.30
2022-10-26T17:10:35.778Z,13.20
2022-10-26T17:13:38.523Z,13.20
2022-10-26T17:16:40.578Z,13.20
2022-10-26T17:19:42.708Z,13.30
2022-10-26T17:22:44.833Z,13.30
2022-10-26T17:25:47.025Z,13.30
2022-10-26T17:28:53.495Z,13.30
2022-10-26T17:31:55.595Z,13.30
2022-10-26T17:34:57.687Z,13.20
2022-10-26T17:37:59.939Z,13.10
2022-10-26T17:41:08.015Z,13.20
2022-10-26T17:44:10.083Z,13.10
2022-10-26T17:47:12.196Z,13.10
2022-10-26T17:50:14.273Z,13.20
2022-10-26T17:53:16.303Z,13.20
2022-10-26T17:56:26.772Z,13.10
2022-10-26T17:59:29.024Z,13.00
2022-10-26T18:02:31.419Z,12.90
2022-10-26T18:05:33.638Z,12.90
2022-10-26T18:08:39.390Z,12.80
2022-10-26T18:11:41.416Z,12.80
2022-10-26T18:14:43.571Z,12.80
2022-10-26T18:17:49.843Z,12.80
2022-10-26T18:20:51.901Z,12.80
2022-10-26T18:23:54.268Z,12.70
2022-10-26T18:26:56.398Z,12.60
2022-10-26T18:29:58.443Z,12.60
2022-10-26T18:33:00.631Z,12.60
2022-10-26T18:36:10.082Z,12.60
2022-10-26T18:39:12.235Z,12.50
2022-10-26T18:42:14.544Z,12.50
2022-10-26T18:45:16.808Z,12.50
2022-10-26T18:48:19.170Z,12.50
2022-10-26T18:51:28.734Z,12.50
2022-10-26T18:54:31.774Z,12.50
2022-10-26T18:57:34.292Z,12.50
2022-10-26T19:00:40.044Z,12.50
2022-10-26T19:03:42.342Z,12.50
2022-10-26T19:06:47.401Z,12.50
2022-10-26T19:09:49.532Z,12.50
2022-10-26T19:12:51.922Z,12.50
2022-10-26T19:16:21.702Z,12.50
2022-10-26T19:19:29.022Z,12.50
2022-10-26T19:22:31.171Z,12.50
2022-10-26T19:25:33.269Z,12.50
2022-10-26T19:28:36.349Z,12.50
2022-10-26T19:31:38.471Z,12.50
2022-10-26T19:34:41.112Z,12.50
2022-10-26T19:37:43.322Z,12.50
2022-10-26T19:40:45.483Z,12.50
2022-10-26T19:43:47.624Z,12.60
2022-10-26T19:46:49.770Z,12.60
2022-10-26T19:49:51.806Z,12.70
2022-10-26T19:52:53.858Z,12.70
2022-10-26T19:55:58.027Z,12.70
2022-10-26T19:59:00.997Z,12.70
2022-10-26T20:02:03.056Z,12.70
2022-10-26T20:05:05.559Z,12.60
2022-10-26T20:08:08.445Z,12.50
2022-10-26T20:11:14.634Z,12.40
2022-10-26T20:14:17.913Z,12.40
2022-10-26T20:17:19.952Z,12.40
2022-10-26T20:20:21.984Z,12.30
2022-10-26T20:23:24.119Z,12.30
2022-10-26T20:26:28.233Z,12.40
2022-10-26T20:29:30.744Z,12.50
2022-10-26T20:32:32.782Z,12.50
2022-10-26T20:35:34.802Z,12.40
2022-10-26T20:38:37.172Z,12.40
2022-10-26T20:41:43.386Z,12.50
2022-10-26T20:44:45.430Z,12.40
2022-10-26T20:47:48.055Z,12.30
2022-10-26T20:50:55.336Z,12.30
2022-10-26T20:54:37.956Z,12.30
2022-10-26T20:57:39.999Z,12.40
2022-10-26T21:00:46.615Z,12.30
2022-10-26T21:03:48.707Z,12.30
2022-10-26T21:06:50.797Z,12.30
2022-10-26T21:09:52.972Z,12.40
2022-10-26T21:12:55.021Z,12.40
2022-10-26T21:15:57.082Z,12.20
2022-10-26T21:19:00.303Z,12.20
2022-10-26T21:22:02.671Z,12.20
2022-10-26T21:25:05.052Z,12.20
2022-10-26T21:28:07.096Z,12.20
2022-10-26T21:31:12.209Z,12.30
2022-10-26T21:34:14.306Z,12.40
2022-10-26T21:37:16.370Z,12.50
2022-10-26T21:40:18.399Z,12.60
2022-10-26T21:43:20.449Z,12.60
2022-10-26T21:46:22.505Z,12.80
2022-10-26T21:49:24.541Z,12.80
2022-10-26T21:52:26.690Z,12.80
2022-10-26T21:55:28.734Z,12.70
2022-10-26T21:58:30.987Z,12.70
2022-10-26T22:01:33.178Z,12.70
2022-10-26T22:04:35.301Z,12.70
2022-10-26T22:07:37.374Z,12.70
2022-10-26T22:10:39.407Z,12.70
2022-10-26T22:13:41.563Z,12.60
2022-10-26T22:16:43.722Z,12.60
2022-10-26T22:19:45.762Z,12.60
2022-10-26T22:22:47.804Z,12.60
2022-10-26T22:25:49.881Z,12.70
2022-10-26T22:28:54.715Z,12.70
2022-10-26T22:31:56.771Z,12.70
2022-10-26T22:35:10.871Z,12.60
2022-10-26T22:38:20.859Z,12.60
2022-10-26T22:41:23.396Z,12.50
2022-10-26T22:44:25.577Z,12.50
2022-10-26T22:47:28.305Z,12.40
2022-10-26T22:50:30.372Z,12.40
2022-10-26T22:53:32.522Z,12.30
2022-10-26T22:56:36.158Z,12.30
2022-10-26T22:59:38.163Z,12.20
2022-10-26T23:02:40.190Z,12.10
2022-10-26T23:05:48.366Z,12.10
2022-10-26T23:08:50.458Z,12.00
2022-10-26T23:11:52.511Z,11.90
2022-10-26T23:14:54.574Z,11.90
2022-10-26T23:17:56.654Z,11.80
2022-10-26T23:20:58.932Z,11.70
2022-10-26T23:24:01.018Z,11.70
2022-10-26T23:27:03.188Z,11.70
2022-10-26T23:30:05.950Z,11.70
2022-10-26T23:33:07.998Z,11.70
2022-10-26T23:36:10.252Z,11.70
2022-10-26T23:39:12.304Z,11.70
2022-10-26T23:42:14.364Z,11.70
2022-10-26T23:45:16.482Z,11.60
2022-10-26T23:48:19.414Z,11.50
2022-10-26T23:51:21.486Z,11.50
2022-10-26T23:54:23.567Z,11.40
2022-10-26T23:57:25.769Z,11.40
